Etusivu
METAR-TAF:

METAR-TAF

Lentoasemat :

Oslo, Norja

Gardermoenin lentoasema

Leveyspiiri: 60-12N, Pituuspiiri: 011-05E, korkeus merenpinnasta: 208 m

Tämänhetkinen sää

Tämä raportti tehtiin 21 minuuttia sitten, kello 22.50 UTC
Tuuli 9 kn etelästä/lounaasta
Lämpötila 2°C
Kosteus 80%
Ilmanpaine 999 hPa
Näkyvyys 10 km tai enemmän
ei pilviä alle 1500 m:ssä eikä cumulonimbus-pilviä

METAR: ENGM 172250Z 21009KT CAVOK 02/M01 Q0999

Aika: 00:11 (23:11 UTC)

Sääennuste

Ennuste voimassa 17. päivästä klo 18 UTC - 18. päivään klo 18 UTC
Tuuli 6 kn etelästä
Näkyvyys 10 km tai enemmän
ei pilviä alle 1500 m:ssä eikä cumulonimbus-pilviä
Todennäköisyys 30% :
Ajoittain
18. päivästä klo 15 UTC - 18. päivään klo 18 UTC
Näkyvyys: 4000 m
Hajonneita pilviä 4000 ft:n korkeudessa
heikkoa lumisadetta
Tulossa
18. päivästä klo 17 UTC - 18. päivään klo 18 UTC
Tuuli 10 kn pohjoisesta/koillisesta

TAF: ENGM 1718/1818 19006KT CAVOK PROB30 TEMPO 1815/1818 4000 -SN BKN040 BECMG 1817/1818 02010KT

Säähavainnot ja -ennusteet yli 4000 lentoasemalta (METAR- ja TAF-raportit).

Käytössä olevat sääasemat on merkitty karttaan keltaisilla ja punaisilla pisteillä.

Aseta hiiri pisteen päälle nähdäksesi sääaseman nimen.

Klikkaa sitten nähdäksesi säähavainnot ja -ennusteet.

Kartan vaihtaminen: klikkaa mustalla rastilla varustettuja vihreitä pisteitä, niin voit zoomata sisään; viivalla varustettua vihreää pistettä, niin voit zoomata ulos tai vihreitä nuolia, niin pääset viereisille kartoille.


METAR-TAF: